createdAt,value
2018-09-10T00:01:58.441Z,99870.95
2018-09-10T00:04:26.024Z,99872.13
2018-09-10T00:06:53.608Z,99882.06
2018-09-10T00:09:21.137Z,99873.64
2018-09-10T00:11:48.708Z,99879.67
2018-09-10T00:14:16.440Z,99881.69
2018-09-10T00:16:44.014Z,99882.52
2018-09-10T00:19:11.531Z,99876.77
2018-09-10T00:21:39.081Z,99877.43
2018-09-10T00:24:06.845Z,99873.72
2018-09-10T00:26:41.115Z,99875.16
2018-09-10T00:29:08.685Z,99879.59
2018-09-10T00:31:36.267Z,99881.09
2018-09-10T00:34:03.858Z,99878.50
2018-09-10T00:36:31.377Z,99871.85
2018-09-10T00:38:58.918Z,99869.16
2018-09-10T00:43:57.212Z,99864.71
2018-09-10T00:46:24.801Z,99869.83
2018-09-10T00:48:52.353Z,99871.34
2018-09-10T00:51:19.929Z,99866.88
2018-09-10T00:53:47.527Z,99864.13
2018-09-10T00:56:15.286Z,99864.10
2018-09-10T00:58:42.866Z,99865.53
2018-09-10T01:01:10.401Z,99861.77
2018-09-10T01:03:37.955Z,99864.20
2018-09-10T01:06:05.707Z,99863.45
2018-09-10T01:08:38.105Z,99861.43
2018-09-10T01:11:05.858Z,99861.02
2018-09-10T01:13:33.461Z,99864.58
2018-09-10T01:16:00.985Z,99866.54
2018-09-10T01:18:28.572Z,99875.53
2018-09-10T01:20:56.349Z,99878.56
2018-09-10T01:23:24.103Z,99873.34
2018-09-10T01:25:51.648Z,99884.13
2018-09-10T01:28:19.207Z,99875.19
2018-09-10T01:30:46.805Z,99885.47
2018-09-10T01:33:14.571Z,99880.83
2018-09-10T01:35:42.123Z,99873.86
2018-09-10T01:38:09.696Z,99876.63
2018-09-10T01:40:37.236Z,99875.61
2018-09-10T01:43:04.819Z,99879.90
2018-09-10T01:45:32.390Z,99881.41
2018-09-10T01:47:59.956Z,99881.75
2018-09-10T01:50:27.479Z,99878.11
2018-09-10T01:52:55.049Z,99873.67
2018-09-10T01:55:22.586Z,99874.17
2018-09-10T01:57:50.136Z,99872.47
2018-09-10T02:00:17.694Z,99868.19
2018-09-10T02:02:45.237Z,99874.09
2018-09-10T02:05:12.827Z,99876.52
2018-09-10T02:07:40.393Z,99871.08
2018-09-10T02:10:07.915Z,99874.77
2018-09-10T02:12:35.476Z,99869.47
2018-09-10T02:15:03.000Z,99880.13
2018-09-10T02:17:30.555Z,99879.91
2018-09-10T02:19:58.101Z,99883.70
2018-09-10T02:22:25.683Z,99876.00
2018-09-10T02:24:53.294Z,99879.80
2018-09-10T02:27:20.895Z,99883.73
2018-09-10T02:29:49.588Z,99879.08
2018-09-10T02:32:17.112Z,99886.77
2018-09-10T02:34:44.696Z,99881.05
2018-09-10T02:37:12.224Z,99875.23
2018-09-10T02:39:39.818Z,99871.53
2018-09-10T02:42:07.330Z,99873.94
2018-09-10T02:44:34.912Z,99859.84
2018-09-10T02:47:02.422Z,99860.18
2018-09-10T02:49:30.269Z,99860.42
2018-09-10T02:51:57.827Z,99856.05
2018-09-10T02:54:25.327Z,99860.36
2018-09-10T02:56:52.904Z,99864.22
2018-09-10T02:59:20.488Z,99856.32
2018-09-10T03:01:48.152Z,99857.23
2018-09-10T03:04:15.720Z,99852.53
2018-09-10T03:06:43.285Z,99835.71
2018-09-10T03:09:10.798Z,99848.51
2018-09-10T03:11:38.355Z,99843.19
2018-09-10T03:14:05.903Z,99843.61
2018-09-10T03:16:33.478Z,99847.75
2018-09-10T03:19:01.077Z,99850.17
2018-09-10T03:21:28.765Z,99856.96
2018-09-10T03:23:56.465Z,99861.77
2018-09-10T03:26:24.136Z,99865.80
2018-09-10T03:28:51.651Z,99867.06
2018-09-10T03:31:19.250Z,99863.30
2018-09-10T03:33:46.786Z,99868.93
2018-09-10T03:36:15.181Z,99866.81
2018-09-10T03:38:43.871Z,99870.27
2018-09-10T03:41:11.446Z,99869.17
2018-09-10T03:43:39.013Z,99874.59
2018-09-10T03:46:06.547Z,99870.19
2018-09-10T03:48:34.127Z,99879.70
2018-09-10T03:51:01.688Z,99888.02
2018-09-10T03:53:29.267Z,99885.33
2018-09-10T03:55:56.815Z,99884.94
2018-09-10T03:58:24.384Z,99888.66
2018-09-10T04:00:51.950Z,99902.20
2018-09-10T04:03:19.519Z,99902.77
2018-09-10T04:05:47.027Z,99908.55
2018-09-10T04:08:15.213Z,99917.40
2018-09-10T04:10:42.961Z,99921.34
2018-09-10T04:13:10.484Z,99913.73
2018-09-10T04:15:38.072Z,99914.18
2018-09-10T04:18:05.615Z,99913.21
2018-09-10T04:20:33.211Z,99914.16
2018-09-10T04:23:00.928Z,99922.43
2018-09-10T04:25:28.525Z,99929.95
2018-09-10T04:27:56.084Z,99932.97
2018-09-10T04:30:23.672Z,99943.22
2018-09-10T04:32:51.257Z,99944.92
2018-09-10T04:35:18.783Z,99946.63
2018-09-10T04:37:46.350Z,99939.83
2018-09-10T04:40:18.303Z,99941.55
2018-09-10T04:42:45.873Z,99938.91
2018-09-10T04:45:13.398Z,99939.81
2018-09-10T04:47:41.015Z,99928.23
2018-09-10T04:50:08.533Z,99922.78
2018-09-10T04:52:36.071Z,99933.73
2018-09-10T04:55:03.650Z,99938.58
2018-09-10T04:57:31.206Z,99942.83
2018-09-10T04:59:58.799Z,99942.86
2018-09-10T05:02:26.356Z,99937.77
2018-09-10T05:04:53.924Z,99953.70
2018-09-10T05:07:21.448Z,99951.28
2018-09-10T05:09:49.147Z,99951.39
2018-09-10T05:12:16.553Z,99945.80
2018-09-10T05:14:44.140Z,99945.23
2018-09-10T05:17:12.627Z,99944.91
2018-09-10T05:19:40.217Z,99948.59
2018-09-10T05:22:07.786Z,99946.56
2018-09-10T05:24:36.597Z,99943.61
2018-09-10T05:27:04.147Z,99945.25
2018-09-10T05:29:31.725Z,99940.70
2018-09-10T05:31:59.272Z,99950.72
2018-09-10T05:34:26.864Z,99962.37
2018-09-10T05:36:54.515Z,99961.69
2018-09-10T05:39:22.045Z,99956.20
2018-09-10T05:41:49.868Z,99963.70
2018-09-10T05:44:17.330Z,99963.95
2018-09-10T05:46:44.915Z,99968.88
2018-09-10T05:49:12.494Z,99974.78
2018-09-10T05:51:40.193Z,99962.47
2018-09-10T05:54:07.717Z,99963.14
2018-09-10T05:56:35.285Z,99967.66
2018-09-10T05:59:02.841Z,99971.19
2018-09-10T06:01:30.433Z,99976.71
2018-09-10T06:03:57.978Z,99987.66
2018-09-10T06:06:26.745Z,99992.44
2018-09-10T06:08:54.329Z,99996.81
2018-09-10T06:11:21.860Z,99998.50
2018-09-10T06:13:49.394Z,100007.48
2018-09-10T06:16:17.006Z,100010.86
2018-09-10T06:18:44.706Z,100021.30
2018-09-10T06:21:15.826Z,100014.09
2018-09-10T06:23:43.355Z,100018.72
2018-09-10T06:26:12.974Z,100012.94
2018-09-10T06:28:40.509Z,100008.00
2018-09-10T06:31:08.061Z,100008.14
2018-09-10T06:33:35.660Z,100004.11
2018-09-10T06:36:03.178Z,100003.97
2018-09-10T06:38:30.767Z,100018.18
2018-09-10T06:40:58.322Z,100028.22
2018-09-10T06:43:25.901Z,100032.16
2018-09-10T06:45:53.463Z,100025.70
2018-09-10T06:48:21.049Z,100021.48
2018-09-10T06:50:48.614Z,100013.63
2018-09-10T06:53:16.191Z,100006.54
2018-09-10T06:55:43.949Z,100009.05
2018-09-10T06:58:12.600Z,99998.09
2018-09-10T07:00:41.401Z,99994.42
2018-09-10T07:03:09.073Z,99999.13
2018-09-10T07:05:36.868Z,100007.05
2018-09-10T07:08:04.582Z,100007.22
2018-09-10T07:10:32.168Z,100008.66
2018-09-10T07:13:01.704Z,100016.94
2018-09-10T07:15:29.758Z,100010.25
2018-09-10T07:17:57.354Z,100017.79
2018-09-10T07:20:24.989Z,100020.67
2018-09-10T07:22:52.708Z,100029.48
2018-09-10T07:25:20.303Z,100031.22
2018-09-10T07:27:48.001Z,100037.97
2018-09-10T07:30:15.634Z,100028.95
2018-09-10T07:32:43.182Z,100035.09
2018-09-10T07:35:11.001Z,100039.54
2018-09-10T07:37:38.742Z,100036.66
2018-09-10T07:40:07.424Z,100041.70
2018-09-10T07:42:36.124Z,100037.09
2018-09-10T07:45:07.222Z,100033.67
2018-09-10T07:47:39.980Z,100022.13
2018-09-10T07:50:08.584Z,100020.41
2018-09-10T07:52:36.099Z,100017.45
2018-09-10T07:55:09.107Z,100022.55
2018-09-10T07:57:37.763Z,100023.34
2018-09-10T08:00:05.571Z,100020.44
2018-09-10T08:02:33.268Z,100033.31
2018-09-10T08:05:00.844Z,100033.55
2018-09-10T08:07:28.396Z,100046.45
2018-09-10T08:09:55.941Z,100044.23
2018-09-10T08:12:23.530Z,100048.62
2018-09-10T08:14:51.073Z,100046.30
2018-09-10T08:17:18.609Z,100043.36
2018-09-10T08:19:46.193Z,100036.84
2018-09-10T08:22:14.812Z,100043.98
2018-09-10T08:24:43.501Z,100041.48
2018-09-10T08:27:11.022Z,100050.76
2018-09-10T08:29:39.663Z,100065.47
2018-09-10T08:32:07.425Z,100066.75
2018-09-10T08:34:34.951Z,100068.27
2018-09-10T08:37:02.493Z,100072.91
2018-09-10T08:39:30.103Z,100066.89
2018-09-10T08:41:57.699Z,100061.04
2018-09-10T08:44:25.269Z,100063.39
2018-09-10T08:46:54.005Z,100064.81
2018-09-10T08:49:25.782Z,100067.11
2018-09-10T08:51:54.473Z,100066.23
2018-09-10T08:54:22.333Z,100064.63
2018-09-10T08:56:49.814Z,100060.78
2018-09-10T08:59:17.457Z,100060.45
2018-09-10T09:01:46.161Z,100063.91
2018-09-10T09:04:13.744Z,100059.34
2018-09-10T09:06:41.307Z,100066.33
2018-09-10T09:09:08.922Z,100073.39
2018-09-10T09:11:36.587Z,100073.34
2018-09-10T09:14:04.396Z,100075.80
2018-09-10T09:16:31.943Z,100074.15
2018-09-10T09:18:59.596Z,100079.94
2018-09-10T09:21:30.693Z,100077.77
2018-09-10T09:23:58.299Z,100073.05
2018-09-10T09:26:25.922Z,100077.23
2018-09-10T09:28:54.583Z,100081.13
2018-09-10T09:31:22.151Z,100078.28
2018-09-10T09:33:49.866Z,100081.99
2018-09-10T09:36:17.453Z,100080.91
2018-09-10T09:39:00.065Z,100075.02
2018-09-10T09:41:33.011Z,100075.19
2018-09-10T09:44:15.454Z,100070.81
2018-09-10T09:46:43.031Z,100078.05
2018-09-10T09:54:55.560Z,100087.09
2018-09-10T09:57:23.275Z,100080.63
2018-09-10T09:59:50.863Z,100080.04
2018-09-10T10:02:19.434Z,100072.34
2018-09-10T10:04:50.930Z,100078.40
2018-09-10T10:07:18.461Z,100074.30
2018-09-10T10:09:46.156Z,100084.65
2018-09-10T10:12:13.813Z,100072.84
2018-09-10T10:14:41.359Z,100080.44
2018-09-10T10:17:09.139Z,100077.93
2018-09-10T10:19:36.681Z,100076.73
2018-09-10T10:22:06.199Z,100084.28
2018-09-10T10:24:33.981Z,100082.38
2018-09-10T10:27:01.602Z,100090.92
2018-09-10T10:29:29.155Z,100082.54
2018-09-10T10:31:56.734Z,100086.61
2018-09-10T10:34:24.399Z,100086.20
2018-09-10T10:36:53.074Z,100089.45
2018-09-10T10:39:24.033Z,100079.16
2018-09-10T10:41:52.649Z,100085.17
2018-09-10T10:44:21.287Z,100079.16
2018-09-10T10:46:48.869Z,100087.50
2018-09-10T10:49:16.490Z,100084.36
2018-09-10T10:51:44.345Z,100075.17
2018-09-10T10:54:12.296Z,100072.05
2018-09-10T10:56:39.856Z,100075.78
2018-09-10T10:59:07.555Z,100085.91
2018-09-10T11:01:35.149Z,100083.48
2018-09-10T11:04:03.750Z,100086.82
2018-09-10T11:06:31.510Z,100091.66
2018-09-10T11:09:01.164Z,100083.63
2018-09-10T11:11:29.076Z,100078.86
2018-09-10T11:13:56.646Z,100086.61
2018-09-10T11:16:24.461Z,100091.73
2018-09-10T11:18:52.249Z,100089.66
2018-09-10T11:21:19.849Z,100078.67
2018-09-10T11:23:47.399Z,100072.27
2018-09-10T11:26:15.279Z,100082.48
2018-09-10T11:28:42.834Z,100088.25
2018-09-10T11:31:10.363Z,100092.00
2018-09-10T11:33:38.061Z,100073.63
2018-09-10T11:36:05.646Z,100066.88
2018-09-10T11:38:33.408Z,100067.30
2018-09-10T11:41:01.013Z,100061.63
2018-09-10T11:43:29.542Z,100065.70
2018-09-10T11:45:57.281Z,100074.14
2018-09-10T11:48:24.872Z,100074.27
2018-09-10T11:50:52.408Z,100076.08
2018-09-10T11:53:26.409Z,100073.52
2018-09-10T11:55:53.921Z,100058.30
2018-09-10T11:58:21.839Z,100056.72
2018-09-10T12:00:49.536Z,100065.50
2018-09-10T12:03:18.159Z,100066.92
2018-09-10T12:05:50.164Z,100063.66
2018-09-10T12:08:17.806Z,100074.91
2018-09-10T12:10:45.347Z,100071.76
2018-09-10T12:13:12.910Z,100075.08
2018-09-10T12:15:48.035Z,100089.33
2018-09-10T12:18:15.561Z,100093.30
2018-09-10T12:20:47.864Z,100095.78
2018-09-10T12:23:15.446Z,100102.25
2018-09-10T12:25:43.951Z,100097.45
2018-09-10T12:28:11.522Z,100103.59
2018-09-10T12:30:39.066Z,100102.67
2018-09-10T12:33:06.667Z,100107.80
2018-09-10T12:35:37.549Z,100099.08
2018-09-10T12:38:05.078Z,100101.70
2018-09-10T12:40:33.718Z,100104.48
2018-09-10T12:43:01.253Z,100109.07
2018-09-10T12:45:28.809Z,100122.92
2018-09-10T12:47:56.423Z,100115.81
2018-09-10T12:50:23.974Z,100122.55
2018-09-10T12:52:51.569Z,100113.27
2018-09-10T12:55:19.090Z,100127.69
2018-09-10T12:57:46.671Z,100120.16
2018-09-10T13:00:14.219Z,100118.05
2018-09-10T13:02:41.772Z,100118.13
2018-09-10T13:05:09.314Z,100120.30
2018-09-10T13:07:36.911Z,100128.36
2018-09-10T13:10:04.423Z,100129.81
2018-09-10T13:12:32.008Z,100118.20
2018-09-10T13:14:59.537Z,100118.22
2018-09-10T13:17:27.050Z,100119.55
2018-09-10T13:19:54.629Z,100117.77
2018-09-10T13:22:22.175Z,100127.56
2018-09-10T13:24:49.746Z,100118.48
2018-09-10T13:27:17.264Z,100097.61
2018-09-10T13:29:44.914Z,100087.61
2018-09-10T13:32:12.429Z,100081.64
2018-09-10T13:34:39.986Z,100078.16
2018-09-10T13:37:07.572Z,100079.41
2018-09-10T13:39:35.157Z,100087.58
2018-09-10T13:42:02.670Z,100085.57
2018-09-10T13:44:30.286Z,100090.55
2018-09-10T13:46:57.850Z,100085.73
2018-09-10T13:49:25.632Z,100078.84
2018-09-10T13:51:53.174Z,100082.84
2018-09-10T13:54:20.712Z,100087.55
2018-09-10T13:56:48.278Z,100116.17
2018-09-10T13:59:15.830Z,100119.28
2018-09-10T14:01:43.500Z,100109.53
2018-09-10T14:04:11.025Z,100107.89
2018-09-10T14:06:38.616Z,100112.83
2018-09-10T14:09:06.130Z,100108.91
2018-09-10T14:11:33.701Z,100097.92
2018-09-10T14:14:01.272Z,100086.36
2018-09-10T14:16:28.849Z,100081.80
2018-09-10T14:18:57.612Z,100074.89
2018-09-10T14:21:25.206Z,100074.31
2018-09-10T14:23:52.793Z,100081.64
2018-09-10T14:26:21.511Z,100083.55
2018-09-10T14:28:49.377Z,100077.06
2018-09-10T14:31:16.998Z,100074.00
2018-09-10T14:33:46.639Z,100085.06
2018-09-10T14:36:14.381Z,100082.14
2018-09-10T14:38:42.129Z,100084.70
2018-09-10T14:41:10.742Z,100081.55
2018-09-10T14:43:41.409Z,100092.48
2018-09-10T14:46:09.153Z,100082.06
2018-09-10T14:48:36.695Z,100088.27
2018-09-10T14:51:04.295Z,100083.82
2018-09-10T14:53:31.878Z,100092.17
2018-09-10T14:55:59.448Z,100100.80
2018-09-10T14:58:27.097Z,100113.52
2018-09-10T15:00:54.799Z,100106.83
2018-09-10T15:03:22.360Z,100111.48
2018-09-10T15:05:49.966Z,100101.78
2018-09-10T15:08:17.452Z,100099.72
2018-09-10T15:10:46.200Z,100106.07
2018-09-10T15:13:13.801Z,100114.16
2018-09-10T15:15:41.367Z,100116.97
2018-09-10T15:18:08.952Z,100108.22
2018-09-10T15:20:36.659Z,100123.64
2018-09-10T15:23:05.783Z,100118.81
2018-09-10T15:25:33.346Z,100125.44
2018-09-10T15:28:00.926Z,100115.66
2018-09-10T15:30:30.449Z,100123.59
2018-09-10T15:32:58.012Z,100118.62
2018-09-10T15:35:25.628Z,100118.31
2018-09-10T15:37:53.215Z,100127.45
2018-09-10T15:40:20.947Z,100134.10
2018-09-10T15:42:48.478Z,100129.72
2018-09-10T15:45:16.078Z,100123.80
2018-09-10T15:47:43.611Z,100125.20
2018-09-10T15:50:11.184Z,100118.47
2018-09-10T15:52:38.744Z,100119.25
2018-09-10T15:55:06.318Z,100117.91
2018-09-10T15:57:33.996Z,100116.72
2018-09-10T16:00:01.578Z,100104.77
2018-09-10T16:02:29.143Z,100100.52
2018-09-10T16:04:56.711Z,100101.34
2018-09-10T16:07:27.559Z,100099.08
2018-09-10T16:09:55.139Z,100103.67
2018-09-10T16:12:23.610Z,100093.62
2018-09-10T16:14:51.606Z,100094.23
2018-09-10T16:17:21.412Z,100094.53
2018-09-10T16:19:49.027Z,100098.30
2018-09-10T16:22:16.686Z,100103.86
2018-09-10T16:24:44.299Z,100104.77
2018-09-10T16:27:11.869Z,100109.84
2018-09-10T16:29:43.294Z,100107.97
2018-09-10T16:32:12.945Z,100111.36
2018-09-10T16:34:44.181Z,100117.83
2018-09-10T16:37:12.776Z,100104.97
2018-09-10T16:39:40.327Z,100104.77
2018-09-10T16:42:09.841Z,100102.42
2018-09-10T16:44:39.415Z,100084.17
2018-09-10T16:47:09.042Z,100081.52
2018-09-10T16:49:36.615Z,100080.36
2018-09-10T16:52:04.204Z,100074.66
2018-09-10T16:54:31.879Z,100079.59
2018-09-10T16:56:59.468Z,100084.51
2018-09-10T16:59:27.068Z,100084.45
2018-09-10T17:01:54.750Z,100081.55
2018-09-10T17:04:22.306Z,100081.08
2018-09-10T17:06:49.892Z,100087.74
2018-09-10T17:09:17.505Z,100097.81
2018-09-10T17:11:45.065Z,100096.36
2018-09-10T17:14:16.086Z,100104.77
2018-09-10T17:16:43.613Z,100106.58
2018-09-10T17:19:11.174Z,100096.31
2018-09-10T17:21:38.776Z,100095.08
2018-09-10T17:24:06.350Z,100090.72
2018-09-10T17:26:33.946Z,100086.89
2018-09-10T17:29:01.481Z,100082.64
2018-09-10T17:31:29.010Z,100081.42
2018-09-10T17:33:56.588Z,100083.78
2018-09-10T17:36:24.169Z,100076.23
2018-09-10T17:38:51.831Z,100080.63
2018-09-10T17:41:21.411Z,100079.80
2018-09-10T17:43:48.979Z,100070.92
2018-09-10T17:46:16.510Z,100085.23
2018-09-10T17:48:44.137Z,100095.50
2018-09-10T17:51:11.687Z,100093.95
2018-09-10T17:53:39.280Z,100086.75
2018-09-10T17:56:06.810Z,100099.25
2018-09-10T17:58:36.414Z,100111.33
2018-09-10T18:01:03.968Z,100110.80
2018-09-10T18:03:31.555Z,100104.16
2018-09-10T18:05:59.150Z,100115.08
2018-09-10T18:08:26.677Z,100134.69
2018-09-10T18:10:54.270Z,100138.29
2018-09-10T18:13:21.890Z,100137.44
2018-09-10T18:15:49.511Z,100136.88
2018-09-10T18:18:17.096Z,100141.11
2018-09-10T18:20:44.678Z,100139.34
2018-09-10T18:23:12.232Z,100140.02
2018-09-10T18:25:39.764Z,100143.05
2018-09-10T18:28:07.327Z,100151.22
2018-09-10T18:30:34.843Z,100162.71
2018-09-10T18:33:02.421Z,100162.65
2018-09-10T18:35:29.964Z,100156.64
2018-09-10T18:37:57.538Z,100146.28
2018-09-10T18:40:25.089Z,100137.86
2018-09-10T18:42:52.709Z,100142.52
2018-09-10T18:45:20.278Z,100144.28
2018-09-10T18:47:48.047Z,100141.70
2018-09-10T18:50:15.603Z,100144.84
2018-09-10T18:52:43.114Z,100151.98
2018-09-10T18:55:10.700Z,100140.84
2018-09-10T18:57:38.212Z,100120.95
2018-09-10T19:00:05.768Z,100099.14
2018-09-10T19:02:33.355Z,100091.80
2018-09-10T19:05:00.958Z,100091.40
2018-09-10T19:07:28.526Z,100093.92
2018-09-10T19:09:56.207Z,100103.39
2018-09-10T19:12:23.717Z,100105.34
2018-09-10T19:14:51.257Z,100098.20
2018-09-10T19:17:18.859Z,100083.69
2018-09-10T19:19:46.460Z,100075.27
2018-09-10T19:22:13.992Z,100071.89
2018-09-10T19:24:41.568Z,100074.52
2018-09-10T19:27:09.109Z,100072.67
2018-09-10T19:29:36.649Z,100075.29
2018-09-10T19:32:04.202Z,100071.54
2018-09-10T19:34:31.715Z,100074.02
2018-09-10T19:36:59.273Z,100078.39
2018-09-10T19:39:26.838Z,100077.96
2018-09-10T19:41:59.209Z,100080.67
2018-09-10T19:44:26.771Z,100082.91
2018-09-10T19:46:54.319Z,100085.48
2018-09-10T19:49:21.904Z,100085.97
2018-09-10T19:51:49.429Z,100091.77
2018-09-10T19:54:16.996Z,100088.73
2018-09-10T19:56:44.574Z,100097.25
2018-09-10T19:59:13.330Z,100105.28
2018-09-10T20:01:40.872Z,100104.73
2018-09-10T20:04:08.465Z,100098.33
2018-09-10T20:06:36.015Z,100090.84
2018-09-10T20:09:03.745Z,100092.78
2018-09-10T20:11:31.288Z,100078.78
2018-09-10T20:13:58.974Z,100091.37
2018-09-10T20:16:26.487Z,100096.06
2018-09-10T20:18:54.187Z,100101.39
2018-09-10T20:21:21.764Z,100096.97
2018-09-10T20:23:49.289Z,100095.38
2018-09-10T20:26:16.876Z,100093.84
2018-09-10T20:28:44.433Z,100093.02
2018-09-10T20:31:11.979Z,100087.34
2018-09-10T20:33:39.558Z,100085.96
2018-09-10T20:36:07.062Z,100096.26
2018-09-10T20:38:34.614Z,100099.78
2018-09-10T20:41:02.131Z,100101.78
2018-09-10T20:43:29.702Z,100103.80
2018-09-10T20:45:58.359Z,100100.88
2018-09-10T20:48:25.951Z,100099.67
2018-09-10T20:50:57.854Z,100097.98
2018-09-10T20:53:25.449Z,100097.80
2018-09-10T20:55:53.025Z,100094.28
2018-09-10T20:58:20.544Z,100094.03
2018-09-10T21:00:49.259Z,100095.22
2018-09-10T21:03:17.042Z,100099.34
2018-09-10T21:05:47.875Z,100109.19
2018-09-10T21:08:17.536Z,100113.20
2018-09-10T21:10:47.118Z,100104.40
2018-09-10T21:13:14.632Z,100105.73
2018-09-10T21:15:44.183Z,100104.58
2018-09-10T21:18:11.752Z,100108.92
2018-09-10T21:20:40.299Z,100099.84
2018-09-10T21:23:09.953Z,100106.25
2018-09-10T21:25:37.900Z,100106.83
2018-09-10T21:28:05.984Z,100105.88
2018-09-10T21:30:33.623Z,100113.09
2018-09-10T21:33:01.305Z,100118.45
2018-09-10T21:35:28.965Z,100120.03
2018-09-10T21:37:56.623Z,100120.27
2018-09-10T21:40:26.174Z,100123.82
2018-09-10T21:42:53.874Z,100126.87
2018-09-10T21:45:21.430Z,100132.17
2018-09-10T21:47:50.078Z,100124.48
2018-09-10T21:50:17.601Z,100118.00
2018-09-10T21:52:50.211Z,100126.31
2018-09-10T21:55:17.751Z,100115.65
2018-09-10T21:57:45.308Z,100109.02
2018-09-10T22:00:12.907Z,100104.08
2018-09-10T22:02:41.600Z,100107.47
2018-09-10T22:05:09.126Z,100095.55
2018-09-10T22:07:36.698Z,100092.55
2018-09-10T22:10:04.275Z,100096.36
2018-09-10T22:12:31.815Z,100097.01
2018-09-10T22:14:59.405Z,100097.83
2018-09-10T22:17:26.955Z,100092.03
2018-09-10T22:19:55.643Z,100089.50
2018-09-10T22:22:24.498Z,100090.99
2018-09-10T22:24:52.089Z,100095.78
2018-09-10T22:27:19.858Z,100099.62
2018-09-10T22:29:51.351Z,100094.92
2018-09-10T22:32:18.873Z,100098.74
2018-09-10T22:34:46.404Z,100098.59
2018-09-10T22:37:13.969Z,100098.80
2018-09-10T22:39:41.516Z,100102.66
2018-09-10T22:42:09.081Z,100096.11
2018-09-10T22:44:36.626Z,100100.83
2018-09-10T22:47:04.190Z,100104.78
2018-09-10T22:49:31.873Z,100109.64
2018-09-10T22:51:59.431Z,100102.80
2018-09-10T22:54:27.024Z,100101.55
2018-09-10T22:56:54.551Z,100109.97
2018-09-10T22:59:22.156Z,100109.91
2018-09-10T23:01:49.757Z,100116.42
2018-09-10T23:04:17.302Z,100114.89
2018-09-10T23:06:45.258Z,100125.84
2018-09-10T23:09:16.602Z,100129.23
2018-09-10T23:11:44.483Z,100132.56
2018-09-10T23:14:12.469Z,100136.60
2018-09-10T23:16:40.518Z,100142.92
2018-09-10T23:19:08.191Z,100140.47
2018-09-10T23:21:37.999Z,100129.84
2018-09-10T23:24:05.553Z,100129.67
2018-09-10T23:26:33.120Z,100133.13
2018-09-10T23:29:06.303Z,100127.30
2018-09-10T23:31:33.971Z,100121.50
2018-09-10T23:34:01.568Z,100121.61
2018-09-10T23:36:37.604Z,100117.12
2018-09-10T23:39:05.119Z,100123.98
2018-09-10T23:41:32.696Z,100127.11
2018-09-10T23:44:00.211Z,100125.00
2018-09-10T23:46:27.799Z,100120.23
2018-09-10T23:48:57.306Z,100118.06
2018-09-10T23:51:24.910Z,100122.88
2018-09-10T23:53:52.516Z,100121.70
2018-09-10T23:56:20.090Z,100125.30
2018-09-10T23:58:47.660Z,100122.41
